Time;durP1;ratioP1;P1;durP2;ratioP2;P2;SDS_P1;SDS_P2;PMS_P1;PMS_P2;Temp;Humidity;BMP_temperature;BMP_pressure;BME280_temperature;BME280_humidity;BME280_pressure;Samples;Min_cycle;Max_cycle;Signal;HPM_P1;HPM_P2
2021/06/28 00:01:04;;;;;;;2.17;1.30;;;;;;;18.10;74.25;96504.91;3533037;40;20484;-73
2021/06/28 00:03:32;;;;;;;1.43;1.10;;;;;;;18.23;72.18;96504.50;3537500;40;20474;-72
2021/06/28 00:06:01;;;;;;;2.20;1.40;;;;;;;18.28;72.20;96507.50;3533609;40;20477;-73
2021/06/28 00:08:29;;;;;;;3.00;1.57;;;;;;;18.29;71.72;96514.47;3536546;40;20726;-73
2021/06/28 00:10:58;;;;;;;1.60;1.23;;;;;;;18.34;70.99;96517.47;3536490;40;20542;-74
2021/06/28 00:13:26;;;;;;;2.30;1.00;;;;;;;18.17;72.44;96521.03;3544686;40;20558;-73
2021/06/28 00:15:54;;;;;;;5.33;1.80;;;;;;;18.05;73.95;96540.78;3540441;40;20821;-74
2021/06/28 00:18:22;;;;;;;5.47;1.30;;;;;;;17.89;75.07;96521.13;3534363;40;21020;-74
2021/06/28 00:20:51;;;;;;;6.60;1.33;;;;;;;17.92;74.41;96523.47;3533961;40;20558;-73
2021/06/28 00:23:19;;;;;;;2.50;1.57;;;;;;;17.94;73.46;96532.09;3532803;40;20445;-72
2021/06/28 00:25:48;;;;;;;4.30;1.30;;;;;;;17.96;73.73;96511.59;3534826;40;20482;-73
2021/06/28 00:28:17;;;;;;;1.57;1.10;;;;;;;17.95;73.89;96502.00;3533182;40;20889;-72
2021/06/28 00:30:45;;;;;;;5.43;1.40;;;;;;;17.91;72.55;96500.63;3535625;40;21128;-73
2021/06/28 00:33:16;;;;;;;1.57;1.33;;;;;;;17.91;73.01;96507.72;3535595;40;20699;-74
2021/06/28 00:35:44;;;;;;;1.50;1.40;;;;;;;18.00;71.52;96492.75;3538808;40;20502;-74
2021/06/28 00:38:13;;;;;;;1.77;1.23;;;;;;;17.84;72.46;96475.75;3533642;40;20476;-73
2021/06/28 00:40:43;;;;;;;1.70;0.93;;;;;;;17.76;72.57;96480.94;3534184;40;20809;-74
2021/06/28 00:43:11;;;;;;;1.40;1.10;;;;;;;17.83;72.83;96492.56;3537232;40;20738;-74
2021/06/28 00:45:42;;;;;;;1.10;1.00;;;;;;;17.87;72.52;96488.66;3532470;40;21000;-75
2021/06/28 00:48:12;;;;;;;1.60;1.10;;;;;;;17.93;72.22;96479.28;3535534;40;20551;-72
2021/06/28 00:50:45;;;;;;;2.90;1.13;;;;;;;18.10;71.78;96483.72;3535444;40;20471;-73
2021/06/28 00:53:14;;;;;;;3.40;1.33;;;;;;;18.15;71.29;96489.38;3538178;40;21015;-74
2021/06/28 00:55:44;;;;;;;3.13;1.50;;;;;;;18.22;71.31;96486.94;3539398;40;20461;-74
2021/06/28 00:58:13;;;;;;;1.93;1.40;;;;;;;18.25;70.95;96488.44;3538429;40;20579;-75
2021/06/28 01:00:43;;;;;;;2.83;1.23;;;;;;;18.22;71.09;96491.41;3534644;40;20468;-73
2021/06/28 01:03:11;;;;;;;3.93;1.40;;;;;;;18.29;70.49;96498.59;3538627;40;20820;-74
2021/06/28 01:05:42;;;;;;;2.60;1.60;;;;;;;18.38;70.11;96489.69;3538473;40;20988;-72
2021/06/28 01:08:11;;;;;;;2.40;1.30;;;;;;;18.31;70.94;96474.56;3535598;40;20734;-73
2021/06/28 01:10:39;;;;;;;1.50;1.37;;;;;;;18.38;71.00;96480.88;3540880;40;20778;-73
2021/06/28 01:13:08;;;;;;;1.97;1.30;;;;;;;18.41;70.60;96471.81;3535970;40;20872;-74
2021/06/28 01:15:36;;;;;;;7.30;1.43;;;;;;;18.37;71.12;96476.59;3534862;40;20677;-74
2021/06/28 01:18:08;;;;;;;3.87;1.70;;;;;;;18.27;72.32;96471.41;3537942;40;20865;-74
2021/06/28 01:20:37;;;;;;;5.63;1.87;;;;;;;18.13;72.81;96477.25;3537454;40;21116;-75
2021/06/28 01:23:20;;;;;;;2.60;1.50;;;;;;;18.00;73.77;96471.56;3533383;40;21108;-73
2021/06/28 01:25:50;;;;;;;2.87;1.30;;;;;;;17.86;74.54;96472.94;3535801;40;20533;-74
2021/06/28 01:28:18;;;;;;;2.07;1.30;;;;;;;17.77;75.18;96475.47;3535888;40;20718;-73
2021/06/28 01:30:46;;;;;;;1.63;1.30;;;;;;;17.87;74.91;96472.78;3535782;40;20695;-74
2021/06/28 01:33:14;;;;;;;5.43;1.53;;;;;;;17.75;75.52;96471.31;3534466;40;20902;-74
2021/06/28 01:35:46;;;;;;;2.47;1.77;;;;;;;17.57;76.91;96474.81;3530365;40;20484;-74
2021/06/28 01:38:14;;;;;;;4.97;1.97;;;;;;;17.48;77.49;96481.00;3536481;40;20500;-74
2021/06/28 01:40:44;;;;;;;4.40;1.70;;;;;;;17.43;78.06;96472.72;3533820;40;20528;-73
2021/06/28 01:43:13;;;;;;;6.83;1.50;;;;;;;17.36;78.06;96471.63;3540666;40;20838;-74
2021/06/28 01:45:41;;;;;;;1.93;1.63;;;;;;;17.33;78.33;96467.50;3542883;40;20596;-74
2021/06/28 01:48:09;;;;;;;6.23;1.50;;;;;;;17.32;78.58;96460.53;3536014;40;20563;-74
2021/06/28 01:50:42;;;;;;;2.93;1.77;;;;;;;17.33;79.11;96464.03;3537134;40;20776;-73
2021/06/28 01:53:10;;;;;;;5.13;1.97;;;;;;;17.31;79.00;96455.41;3539962;40;20452;-75
2021/06/28 01:55:40;;;;;;;1.93;1.57;;;;;;;17.35;79.00;96457.59;3538109;40;20484;-74
2021/06/28 01:58:13;;;;;;;2.50;1.90;;;;;;;17.37;78.90;96460.09;3537445;40;20948;-73
2021/06/28 02:00:44;;;;;;;2.23;1.50;;;;;;;17.37;79.19;96457.44;3538596;40;20906;-74
2021/06/28 02:03:15;;;;;;;1.73;1.57;;;;;;;17.35;78.89;96451.47;3537561;40;20457;-74
2021/06/28 02:05:44;;;;;;;3.20;1.80;;;;;;;17.42;79.08;96443.75;3547189;40;20931;-74
2021/06/28 02:08:15;;;;;;;8.60;2.30;;;;;;;17.42;78.59;96436.63;3545939;40;20474;-75
2021/06/28 02:10:47;;;;;;;3.77;1.70;;;;;;;17.44;78.87;96436.47;3535111;40;20466;-73
2021/06/28 02:13:17;;;;;;;2.80;1.93;;;;;;;17.44;78.56;96442.59;3538796;40;20457;-72
2021/06/28 02:15:45;;;;;;;1.93;1.50;;;;;;;17.47;79.17;96460.00;3529352;40;20789;-73
2021/06/28 02:18:13;;;;;;;5.13;1.97;;;;;;;17.46;78.77;96459.16;3537097;40;20912;-74
2021/06/28 02:20:42;;;;;;;4.40;1.70;;;;;;;17.46;78.76;96466.28;3534728;40;20572;-75
2021/06/28 02:23:28;;;;;;;3.17;2.10;;;;;;;17.42;79.04;96470.22;3539775;40;20467;-74
2021/06/28 02:25:59;;;;;;;2.27;1.63;;;;;;;17.42;79.08;96471.03;3532495;40;20638;-74
2021/06/28 02:28:30;;;;;;;3.40;2.20;;;;;;;17.39;78.95;96479.28;3539880;40;20705;-73
2021/06/28 02:30:59;;;;;;;4.53;2.00;;;;;;;17.45;79.01;96477.88;3535340;40;20457;-75
2021/06/28 02:33:30;;;;;;;2.33;1.57;;;;;;;17.44;78.50;96476.19;3537759;40;20479;-72
2021/06/28 02:35:59;;;;;;;3.30;2.10;;;;;;;17.49;78.25;96476.56;3538292;40;20568;-71
2021/06/28 02:38:28;;;;;;;4.73;2.23;;;;;;;17.47;78.45;96465.31;3542059;40;20478;-73
2021/06/28 02:40:56;;;;;;;3.60;1.50;;;;;;;17.57;77.85;96468.69;3537370;40;20833;-74
2021/06/28 02:43:24;;;;;;;2.07;1.67;;;;;;;17.63;77.46;96464.63;3535797;40;20977;-73
2021/06/28 02:45:54;;;;;;;2.00;1.80;;;;;;;17.65;77.59;96467.94;3536199;40;20773;-76
2021/06/28 02:48:22;;;;;;;2.80;1.77;;;;;;;17.61;77.26;96467.41;3539730;40;20955;-74
2021/06/28 02:50:51;;;;;;;1.97;1.77;;;;;;;17.67;77.02;96471.25;3534927;40;20891;-74
2021/06/28 02:53:19;;;;;;;2.00;1.67;;;;;;;17.71;77.41;96473.44;3538390;40;20490;-74
2021/06/28 02:55:48;;;;;;;3.50;1.53;;;;;;;17.77;78.00;96467.53;3538396;40;20550;-75
2021/06/28 02:58:18;;;;;;;2.53;1.60;;;;;;;17.69;78.83;96442.81;3535893;40;20536;-74
2021/06/28 03:00:46;;;;;;;3.10;1.93;;;;;;;17.76;79.09;96454.47;3536837;40;21184;-73
2021/06/28 03:03:16;;;;;;;5.20;1.43;;;;;;;17.63;79.08;96454.84;3532898;40;20489;-73
2021/06/28 03:05:45;;;;;;;7.27;1.80;;;;;;;17.44;79.19;96477.00;3533856;40;20837;-74
2021/06/28 03:08:12;;;;;;;4.00;1.80;;;;;;;17.35;80.07;96467.34;3538000;40;20842;-74
2021/06/28 03:10:40;;;;;;;3.60;1.93;;;;;;;17.34;80.24;96461.19;3533805;40;20931;-73
2021/06/28 03:13:09;;;;;;;14.40;1.53;;;;;;;17.49;80.29;96464.16;3539346;40;21096;-75
2021/06/28 03:15:37;;;;;;;2.00;1.80;;;;;;;17.56;80.16;96454.63;3536200;40;20451;-73
2021/06/28 03:18:06;;;;;;;2.53;1.73;;;;;;;17.62;79.84;96447.06;3534860;40;20464;-73
2021/06/28 03:20:35;;;;;;;2.60;1.80;;;;;;;17.61;80.53;96440.09;3543968;40;20464;-73
2021/06/28 03:23:04;;;;;;;4.40;1.70;;;;;;;17.65;79.96;96433.53;3532571;40;20895;-74
2021/06/28 03:25:32;;;;;;;2.07;1.77;;;;;;;17.66;79.58;96427.22;3536476;40;20466;-74
2021/06/28 03:28:01;;;;;;;1.90;1.70;;;;;;;17.71;78.92;96409.06;3531640;40;20925;-74
2021/06/28 03:30:29;;;;;;;5.00;2.23;;;;;;;17.67;78.12;96408.53;3538312;40;20461;-75
2021/06/28 03:32:58;;;;;;;3.27;2.10;;;;;;;17.59;78.83;96411.94;3537395;40;20817;-75
2021/06/28 03:35:26;;;;;;;2.93;1.90;;;;;;;17.68;78.42;96404.91;3534779;40;20462;-74
2021/06/28 03:37:56;;;;;;;1.80;1.67;;;;;;;17.72;78.01;96408.91;3541852;40;20947;-76
2021/06/28 03:40:24;;;;;;;2.40;1.40;;;;;;;17.70;77.51;96410.88;3541261;40;20481;-74
2021/06/28 03:42:52;;;;;;;6.30;1.93;;;;;;;17.76;77.41;96409.44;3537602;40;20713;-74
2021/06/28 03:45:21;;;;;;;2.00;1.53;;;;;;;17.78;77.72;96402.19;3538641;40;20484;-74
2021/06/28 03:47:48;;;;;;;2.50;1.40;;;;;;;17.78;78.10;96412.78;3535942;40;20450;-74
2021/06/28 03:50:17;;;;;;;3.43;1.80;;;;;;;17.66;78.11;96428.06;3540022;40;20471;-74
2021/06/28 03:52:45;;;;;;;8.77;1.97;;;;;;;17.62;78.10;96441.75;3535673;40;20506;-74
2021/06/28 03:55:14;;;;;;;2.77;2.00;;;;;;;17.56;78.68;96444.03;3536050;40;20585;-72
2021/06/28 03:57:42;;;;;;;6.57;1.87;;;;;;;17.33;79.45;96437.56;3535105;40;20451;-74
2021/06/28 04:00:12;;;;;;;3.20;2.00;;;;;;;17.48;79.05;96443.13;3538097;40;20468;-73
2021/06/28 04:02:42;;;;;;;7.00;2.77;;;;;;;17.44;79.51;96455.84;3540337;40;20746;-74
2021/06/28 04:05:13;;;;;;;3.33;2.60;;;;;;;17.50;79.28;96436.69;3534449;40;20827;-73
2021/06/28 04:07:42;;;;;;;4.57;2.30;;;;;;;17.57;79.50;96426.34;3533648;40;20445;-74
2021/06/28 04:10:16;;;;;;;10.70;2.43;;;;;;;17.68;79.67;96422.59;3535235;40;20488;-73
2021/06/28 04:12:45;;;;;;;6.90;1.83;;;;;;;17.79;79.39;96422.34;3536435;40;20441;-73
2021/06/28 04:15:14;;;;;;;2.97;1.87;;;;;;;17.82;78.98;96413.25;3540019;40;20825;-74
2021/06/28 04:17:45;;;;;;;11.90;2.23;;;;;;;17.73;79.00;96388.56;3537503;40;20992;-76
2021/06/28 04:20:15;;;;;;;2.80;1.77;;;;;;;17.82;79.21;96400.88;3537259;40;20915;-74
2021/06/28 04:22:44;;;;;;;5.17;1.80;;;;;;;17.59;79.50;96405.84;3537250;40;20994;-75
2021/06/28 04:25:15;;;;;;;3.00;2.17;;;;;;;17.72;78.85;96421.31;3535909;40;20931;-78
2021/06/28 04:27:43;;;;;;;3.30;1.93;;;;;;;17.69;79.21;96425.09;3538712;40;20547;-75
2021/06/28 04:30:14;;;;;;;2.50;1.77;;;;;;;17.39;80.92;96429.84;3534999;40;20473;-76
2021/06/28 04:32:42;;;;;;;5.53;2.30;;;;;;;17.27;82.06;96438.13;3540347;40;20829;-76
2021/06/28 04:35:13;;;;;;;3.57;2.03;;;;;;;17.38;81.24;96446.69;3536408;40;20500;-75
2021/06/28 04:37:41;;;;;;;4.47;2.03;;;;;;;17.31;81.55;96445.63;3534068;40;20841;-75
2021/06/28 04:40:12;;;;;;;3.10;1.90;;;;;;;17.35;80.49;96449.66;3536915;40;21101;-74
2021/06/28 04:42:42;;;;;;;3.00;1.73;;;;;;;17.36;80.79;96453.94;3536278;40;20760;-76
2021/06/28 04:45:13;;;;;;;1.90;1.70;;;;;;;17.48;80.33;96451.91;3535584;40;21100;-76
2021/06/28 04:47:41;;;;;;;6.03;1.80;;;;;;;17.53;79.91;96454.09;3553807;40;20493;-76
2021/06/28 04:50:11;;;;;;;2.73;2.00;;;;;;;17.66;79.33;96453.69;3535843;40;20806;-76
2021/06/28 04:52:39;;;;;;;1.83;1.50;;;;;;;17.45;80.78;96452.22;3538287;40;20674;-77
2021/06/28 04:55:13;;;;;;;3.73;2.50;;;;;;;17.58;80.24;96447.38;3541889;40;20477;-76
2021/06/28 04:57:43;;;;;;;2.57;1.60;;;;;;;17.61;79.55;96451.53;3535856;40;20452;-75
2021/06/28 05:00:13;;;;;;;4.50;2.10;;;;;;;17.77;78.94;96434.94;3533744;40;20559;-75
2021/06/28 05:02:41;;;;;;;10.43;1.83;;;;;;;17.97;78.14;96447.03;3536366;40;20448;-75
2021/06/28 05:05:11;;;;;;;2.87;1.93;;;;;;;18.20;77.26;96450.97;3534402;40;20473;-74
2021/06/28 05:07:39;;;;;;;2.13;1.70;;;;;;;18.31;76.81;96451.53;3538244;40;20549;-75
2021/06/28 05:10:07;;;;;;;3.60;2.00;;;;;;;18.25;77.27;96454.81;3543121;40;20596;-74
2021/06/28 05:12:35;;;;;;;3.27;1.50;;;;;;;18.37;76.05;96453.56;3539458;40;20444;-73
2021/06/28 05:15:07;;;;;;;2.90;2.37;;;;;;;18.56;75.03;96455.16;3533941;40;20478;-74
2021/06/28 05:17:36;;;;;;;3.50;1.80;;;;;;;19.02;73.61;96454.03;3538942;40;20876;-74
2021/06/28 05:20:05;;;;;;;5.67;1.90;;;;;;;19.08;73.65;96448.88;3536594;40;20818;-74
2021/06/28 05:22:33;;;;;;;1.93;1.40;;;;;;;19.33;70.19;96443.66;3537123;40;20927;-74
2021/06/28 05:25:01;;;;;;;1.40;1.20;;;;;;;19.45;69.94;96444.16;3535798;40;20966;-74
2021/06/28 05:27:29;;;;;;;6.40;1.63;;;;;;;19.28;70.03;96449.41;3549992;40;20475;-73
2021/06/28 05:29:57;;;;;;;4.60;1.67;;;;;;;19.31;71.11;96441.16;3537414;40;20772;-74
2021/06/28 05:32:27;;;;;;;3.10;1.37;;;;;;;19.18;70.99;96443.44;3543567;40;20475;-74
2021/06/28 05:34:55;;;;;;;3.93;1.33;;;;;;;19.34;70.93;96437.31;3535239;40;20864;-73
2021/06/28 05:37:23;;;;;;;1.90;1.50;;;;;;;19.39;70.22;96435.00;3535250;40;20788;-74
2021/06/28 05:39:51;;;;;;;1.70;1.60;;;;;;;19.40;70.26;96436.66;3533846;40;20569;-75
2021/06/28 05:42:19;;;;;;;4.77;1.57;;;;;;;19.50;69.96;96444.47;3536584;40;20906;-74
2021/06/28 05:44:47;;;;;;;4.10;1.67;;;;;;;19.51;70.53;96441.66;3535890;40;20470;-75
2021/06/28 05:47:16;;;;;;;3.97;1.20;;;;;;;19.52;69.65;96438.03;3539292;40;20900;-75
2021/06/28 05:49:46;;;;;;;1.90;1.43;;;;;;;19.34;70.67;96432.00;3534312;40;20899;-75
2021/06/28 05:52:18;;;;;;;2.63;1.50;;;;;;;19.42;70.98;96437.31;3536897;40;20458;-75
2021/06/28 05:54:48;;;;;;;16.80;9.60;;;;;;;19.29;72.00;96444.97;3536359;40;20484;-73
2021/06/28 05:57:18;;;;;;;4.43;2.07;;;;;;;19.09;72.61;96453.22;3541601;40;20449;-74
2021/06/28 05:59:46;;;;;;;9.13;1.90;;;;;;;19.35;72.20;96453.09;3537241;40;20935;-74
2021/06/28 06:02:15;;;;;;;2.20;1.93;;;;;;;19.61;71.12;96446.81;3540226;40;20539;-74
2021/06/28 06:04:43;;;;;;;2.20;1.50;;;;;;;19.74;70.92;96443.69;3535628;40;20784;-75
2021/06/28 06:07:12;;;;;;;2.33;1.80;;;;;;;20.09;70.26;96444.31;3532081;40;20455;-75
2021/06/28 06:09:40;;;;;;;2.63;1.60;;;;;;;20.63;67.95;96431.22;3537672;40;20490;-75
2021/06/28 06:12:10;;;;;;;3.67;1.60;;;;;;;21.01;65.70;96427.88;3535914;40;20769;-74
2021/06/28 06:14:38;;;;;;;2.33;1.70;;;;;;;21.02;65.48;96430.38;3535574;40;20915;-75
2021/06/28 06:17:06;;;;;;;3.07;1.67;;;;;;;21.23;64.56;96432.44;3539396;40;20741;-75
2021/06/28 06:19:33;;;;;;;5.00;1.90;;;;;;;21.25;63.94;96430.41;3537368;40;20766;-75
2021/06/28 06:22:01;;;;;;;3.13;1.73;;;;;;;21.47;63.46;96426.13;3533727;40;20519;-74
2021/06/28 06:24:31;;;;;;;2.10;1.53;;;;;;;21.39;64.69;96431.50;3539519;40;20779;-74
2021/06/28 06:26:59;;;;;;;2.00;1.73;;;;;;;20.94;64.50;96417.94;3535454;40;20547;-74
2021/06/28 06:29:27;;;;;;;1.50;1.37;;;;;;;21.28;62.81;96424.72;3534265;40;20565;-75
2021/06/28 06:31:55;;;;;;;10.90;1.70;;;;;;;21.45;62.55;96414.00;3530573;40;20810;-75
2021/06/28 06:34:24;;;;;;;1.50;1.40;;;;;;;21.55;62.89;96430.56;3540163;40;20480;-74
2021/06/28 06:36:59;;;;;;;2.47;1.60;;;;;;;21.33;63.44;96435.69;3537459;40;20415;-73
2021/06/28 06:39:27;;;;;;;7.90;1.50;;;;;;;21.32;63.13;96436.69;3535694;40;20892;-74
2021/06/28 06:41:56;;;;;;;5.43;1.73;;;;;;;21.66;62.35;96439.97;3535969;40;20469;-74
2021/06/28 06:44:24;;;;;;;20.73;13.27;;;;;;;22.14;61.35;96440.53;3533297;40;20487;-75
2021/06/28 06:46:52;;;;;;;4.40;3.30;;;;;;;22.25;60.03;96437.47;3537970;40;21112;-74
2021/06/28 06:49:20;;;;;;;3.20;1.80;;;;;;;22.30;59.98;96436.91;3539417;40;20888;-74
2021/06/28 06:51:49;;;;;;;1.97;1.67;;;;;;;22.41;59.72;96440.97;3538297;40;20532;-74
2021/06/28 06:54:17;;;;;;;2.70;1.37;;;;;;;22.47;59.33;96442.91;3535812;40;20777;-75
2021/06/28 06:56:45;;;;;;;1.50;1.40;;;;;;;22.57;60.47;96432.78;3538855;40;20497;-73
2021/06/28 06:59:15;;;;;;;1.97;1.60;;;;;;;22.90;59.08;96446.56;3531196;40;20539;-73
2021/06/28 07:01:43;;;;;;;3.30;1.93;;;;;;;23.20;59.38;96451.03;3538451;40;20576;-75
2021/06/28 07:04:14;;;;;;;5.93;1.70;;;;;;;23.47;55.82;96447.63;3535182;40;20823;-75
2021/06/28 07:06:42;;;;;;;5.37;1.40;;;;;;;22.96;56.72;96447.66;3550012;40;20471;-75
2021/06/28 07:09:14;;;;;;;1.50;1.40;;;;;;;23.44;58.52;96440.00;3534294;40;20468;-76
2021/06/28 07:11:42;;;;;;;11.63;2.20;;;;;;;23.77;57.83;96447.50;3531200;40;20558;-76
2021/06/28 07:14:10;;;;;;;149.23;16.93;;;;;;;23.61;55.90;96453.94;3538996;40;20493;-75
2021/06/28 07:16:39;;;;;;;5.03;2.90;;;;;;;24.25;58.27;96452.25;3536469;40;20677;-76
2021/06/28 07:19:07;;;;;;;3.00;2.30;;;;;;;24.75;55.25;96458.31;3537114;40;20830;-74
2021/06/28 07:21:36;;;;;;;78.60;55.93;;;;;;;24.77;54.81;96458.13;3533603;40;20803;-75
2021/06/28 07:24:05;;;;;;;9.50;2.87;;;;;;;24.56;56.10;96467.91;3530523;40;20466;-75
2021/06/28 07:26:34;;;;;;;9.50;1.90;;;;;;;23.55;57.37;96462.72;3539366;40;20888;-74
2021/06/28 07:29:02;;;;;;;1.87;1.37;;;;;;;24.65;56.01;96473.94;3534549;40;20451;-75
2021/06/28 07:31:30;;;;;;;8.50;1.53;;;;;;;25.05;56.09;96474.13;3535477;40;20724;-75
2021/06/28 07:34:00;;;;;;;13.17;1.90;;;;;;;24.32;58.20;96482.53;3540100;40;20742;-74
2021/06/28 07:36:28;;;;;;;3.00;1.63;;;;;;;25.22;56.78;96472.78;3538596;40;20718;-75
2021/06/28 07:39:01;;;;;;;4.00;1.37;;;;;;;25.72;55.32;96472.50;3529479;40;20795;-73
2021/06/28 07:41:34;;;;;;;8.43;1.47;;;;;;;26.10;52.38;96485.34;3541155;40;20469;-74
2021/06/28 07:44:05;;;;;;;4.13;1.23;;;;;;;26.17;53.32;96486.19;3542158;40;20534;-74
2021/06/28 07:46:34;;;;;;;3.33;1.30;;;;;;;26.36;52.79;96492.56;3540360;40;20736;-74
2021/06/28 07:49:05;;;;;;;7.33;1.70;;;;;;;26.38;52.38;96484.31;3548586;40;20913;-75
2021/06/28 07:51:37;;;;;;;12.60;1.90;;;;;;;26.15;52.52;96482.88;3565707;40;20530;-73
2021/06/28 07:54:07;;;;;;;3.10;1.70;;;;;;;26.14;52.58;96491.94;3539776;40;20469;-74
2021/06/28 07:56:36;;;;;;;6.20;1.33;;;;;;;26.54;51.09;96481.19;3535434;40;20579;-73
2021/06/28 07:59:05;;;;;;;2.43;1.47;;;;;;;26.62;52.48;96483.69;3535922;40;20484;-74
2021/06/28 08:01:33;;;;;;;4.90;1.70;;;;;;;26.20;54.26;96484.94;3546254;40;20477;-74
2021/06/28 08:04:04;;;;;;;4.50;1.63;;;;;;;26.30;54.00;96479.97;3545798;40;20532;-73
2021/06/28 08:06:35;;;;;;;2.30;1.80;;;;;;;25.96;53.03;96484.50;3552543;40;20464;-73
2021/06/28 08:09:05;;;;;;;1.80;1.53;;;;;;;25.71;55.45;96470.84;3543631;40;20477;-73
2021/06/28 08:11:34;;;;;;;1.97;1.50;;;;;;;25.20;55.11;96482.00;3553227;40;20454;-73
2021/06/28 08:14:02;;;;;;;2.63;1.47;;;;;;;25.31;56.46;96464.59;3542634;40;20472;-73
2021/06/28 08:16:30;;;;;;;1.63;1.40;;;;;;;26.54;53.87;96478.53;3537217;40;21214;-73
2021/06/28 08:18:58;;;;;;;4.17;2.07;;;;;;;26.26;52.97;96481.41;3534104;40;20868;-73
2021/06/28 08:21:35;;;;;;;3.60;1.60;;;;;;;25.87;52.09;96479.53;3536092;40;20763;-73
2021/06/28 08:24:05;;;;;;;1.97;1.40;;;;;;;25.90;54.02;96481.81;3541143;40;20537;-73
2021/06/28 08:26:33;;;;;;;5.27;1.40;;;;;;;26.57;53.59;96482.63;3547669;40;20530;-74
2021/06/28 08:29:03;;;;;;;2.20;1.70;;;;;;;26.43;50.00;96479.16;3533355;40;20461;-72
2021/06/28 08:31:33;;;;;;;16.13;1.73;;;;;;;25.23;54.41;96487.84;3534881;40;20557;-72
2021/06/28 08:34:12;;;;;;;2.40;1.60;;;;;;;25.34;55.02;96480.25;3537228;40;20836;-73
2021/06/28 08:36:44;;;;;;;5.70;2.23;;;;;;;26.03;53.62;96473.78;3540752;40;20551;-73
2021/06/28 08:39:13;;;;;;;4.10;1.60;;;;;;;26.44;53.98;96478.09;3542555;40;20709;-73
2021/06/28 08:41:43;;;;;;;2.50;1.60;;;;;;;27.27;50.58;96490.13;3536309;40;20755;-73
2021/06/28 08:44:13;;;;;;;1.90;1.70;;;;;;;27.62;49.16;96498.66;3537404;40;20652;-74
2021/06/28 08:46:42;;;;;;;2.20;1.60;;;;;;;26.78;49.61;96503.06;3539725;40;20800;-74
2021/06/28 08:49:11;;;;;;;64.07;45.70;;;;;;;27.00;51.43;96499.06;3536494;40;20481;-73
2021/06/28 08:51:41;;;;;;;4.33;2.43;;;;;;;26.63;51.90;96495.25;3537716;40;20451;-73
2021/06/28 08:54:11;;;;;;;3.80;1.60;;;;;;;26.61;51.28;96508.06;3544699;40;20489;-73
2021/06/28 08:56:42;;;;;;;2.33;1.67;;;;;;;27.07;50.51;96508.97;3537054;40;20554;-73
2021/06/28 08:59:15;;;;;;;4.67;1.40;;;;;;;27.44;49.98;96511.97;3539605;40;20776;-76
2021/06/28 09:01:43;;;;;;;6.50;1.43;;;;;;;27.14;49.50;96512.47;3545707;40;20559;-73
2021/06/28 09:04:11;;;;;;;4.60;1.70;;;;;;;27.28;48.17;96507.91;3532960;40;20442;-73
2021/06/28 09:06:40;;;;;;;4.50;1.70;;;;;;;27.34;49.40;96513.22;3539094;40;21195;-73
2021/06/28 09:09:10;;;;;;;37.50;22.60;;;;;;;26.94;50.86;96517.91;3536574;40;20535;-73
2021/06/28 09:11:40;;;;;;;18.57;13.10;;;;;;;27.36;49.81;96511.19;3537480;40;20824;-73
2021/06/28 09:14:10;;;;;;;3.90;1.97;;;;;;;27.44;46.29;96509.28;3535880;40;20485;-73
2021/06/28 09:16:40;;;;;;;4.30;1.30;;;;;;;28.13;46.34;96500.41;3543461;40;20485;-74
2021/06/28 09:19:12;;;;;;;4.03;1.33;;;;;;;28.37;44.49;96501.44;3536273;40;20865;-73
2021/06/28 09:21:45;;;;;;;3.30;1.73;;;;;;;28.31;44.05;96507.69;3536559;40;20776;-74
2021/06/28 09:24:29;;;;;;;5.43;1.40;;;;;;;27.47;45.92;96501.59;3532836;40;20457;-73
2021/06/28 09:26:58;;;;;;;4.13;1.60;;;;;;;27.61;46.92;96507.75;3542074;40;20631;-73
2021/06/28 09:29:34;;;;;;;4.10;1.70;;;;;;;27.92;46.97;96500.75;3541293;40;20480;-74
2021/06/28 09:32:09;;;;;;;9.13;1.80;;;;;;;27.99;47.55;96505.06;3539950;40;20495;-74
2021/06/28 09:34:38;;;;;;;8.97;1.70;;;;;;;28.28;46.50;96501.94;3539077;40;20477;-73
2021/06/28 09:37:13;;;;;;;4.20;1.67;;;;;;;28.26;46.15;96494.06;3538453;40;20512;-73
2021/06/28 09:39:42;;;;;;;3.53;1.10;;;;;;;29.94;42.48;96488.47;3538468;40;20485;-74
2021/06/28 09:42:13;;;;;;;8.20;1.80;;;;;;;30.09;40.88;96486.16;3538153;40;20453;-74
2021/06/28 09:44:51;;;;;;;7.77;1.67;;;;;;;30.02;40.19;96474.63;3536002;40;20541;-74
2021/06/28 09:47:21;;;;;;;5.10;1.80;;;;;;;28.38;42.69;96492.31;3535070;40;20834;-73
2021/06/28 09:50:00;;;;;;;2.17;1.23;;;;;;;29.58;42.30;96476.72;3539371;40;20483;-74
2021/06/28 09:52:32;;;;;;;19.40;13.97;;;;;;;30.43;40.54;96486.44;3531086;40;20566;-75
2021/06/28 09:55:19;;;;;;;6.60;4.87;;;;;;;29.55;40.12;96479.88;3537419;40;20456;-75
2021/06/28 09:58:07;;;;;;;2.33;2.10;;;;;;;29.39;41.03;96489.41;3537198;40;20440;-74
2021/06/28 10:00:37;;;;;;;6.00;2.13;;;;;;;29.58;39.68;96492.91;3534889;40;21114;-74
2021/06/28 10:03:26;;;;;;;3.30;1.53;;;;;;;29.57;40.13;96480.47;3536777;40;20745;-73
2021/06/28 10:06:00;;;;;;;1.60;1.37;;;;;;;29.72;39.50;96474.69;3537579;40;20969;-73
2021/06/28 10:08:34;;;;;;;3.33;1.33;;;;;;;30.69;38.31;96468.94;3536249;40;20448;-73
2021/06/28 10:11:16;;;;;;;1.90;1.23;;;;;;;30.74;38.99;96473.66;3535341;40;20845;-74
2021/06/28 10:13:48;;;;;;;12.90;8.57;;;;;;;31.76;38.10;96468.69;3535595;40;20451;-73
2021/06/28 10:16:19;;;;;;;9.37;7.07;;;;;;;30.44;39.17;96469.19;3540426;40;20543;-74
2021/06/28 10:18:47;;;;;;;5.40;4.10;;;;;;;30.94;39.88;96468.69;3537360;40;20453;-73
2021/06/28 10:21:16;;;;;;;3.33;1.83;;;;;;;29.54;41.58;96467.41;3537020;40;20497;-74
2021/06/28 10:23:45;;;;;;;2.03;1.17;;;;;;;30.23;40.31;96475.97;3539227;40;20527;-73
2021/06/28 10:26:14;;;;;;;3.50;1.67;;;;;;;30.25;40.86;96464.94;3536151;40;20516;-74
2021/06/28 10:28:42;;;;;;;6.20;1.73;;;;;;;29.84;39.92;96455.84;3530477;40;20474;-73
2021/06/28 10:31:12;;;;;;;2.87;1.50;;;;;;;30.91;38.70;96466.50;3537074;40;20570;-73
2021/06/28 10:33:42;;;;;;;2.07;1.80;;;;;;;30.82;38.60;96459.78;3538183;40;20793;-73
2021/06/28 10:36:13;;;;;;;3.30;1.50;;;;;;;30.87;38.53;96451.78;3536627;40;20738;-75
2021/06/28 10:38:48;;;;;;;4.10;1.37;;;;;;;30.96;39.09;96452.25;3539009;40;20812;-73
2021/06/28 10:41:35;;;;;;;7.30;1.40;;;;;;;31.62;37.47;96450.06;3542761;40;20987;-74
2021/06/28 10:44:05;;;;;;;1.47;1.33;;;;;;;31.77;37.17;96427.84;3537112;40;20457;-73
2021/06/28 10:46:35;;;;;;;2.27;1.40;;;;;;;31.97;35.92;96443.63;3539883;40;20974;-75
2021/06/28 10:49:04;;;;;;;3.33;1.63;;;;;;;31.09;34.94;96459.28;3539830;40;20484;-73
2021/06/28 10:51:41;;;;;;;1.47;1.13;;;;;;;30.97;36.78;96448.47;3540038;40;20441;-74
2021/06/28 10:54:15;;;;;;;4.83;1.03;;;;;;;31.12;37.78;96447.97;3535690;40;20899;-74
2021/06/28 10:56:55;;;;;;;38.23;28.57;;;;;;;31.42;36.58;96438.81;3543969;40;20473;-74
2021/06/28 10:59:41;;;;;;;7.70;4.17;;;;;;;31.81;34.46;96450.63;3538356;40;20810;-74
2021/06/28 11:02:12;;;;;;;1.30;1.20;;;;;;;32.20;34.07;96444.53;3538802;40;20515;-74
2021/06/28 11:04:54;;;;;;;3.43;1.40;;;;;;;31.34;36.02;96440.84;3541877;40;20855;-75
2021/06/28 11:07:22;;;;;;;2.50;1.37;;;;;;;31.79;37.04;96443.84;3540428;40;20761;-75
2021/06/28 11:09:54;;;;;;;2.23;1.43;;;;;;;30.39;37.21;96444.78;3539237;40;20488;-74
2021/06/28 11:12:33;;;;;;;6.73;1.57;;;;;;;30.32;39.38;96436.78;3543287;40;20962;-75
2021/06/28 11:15:08;;;;;;;2.30;1.33;;;;;;;29.98;38.73;96441.06;3536822;40;20873;-75
2021/06/28 11:17:45;;;;;;;4.50;1.60;;;;;;;32.09;35.73;96435.44;3541577;40;20798;-74
2021/06/28 11:20:37;;;;;;;2.30;1.30;;;;;;;30.65;36.14;96434.53;3536994;40;20833;-74
2021/06/28 11:23:10;;;;;;;1.60;1.30;;;;;;;31.54;35.93;96436.91;3541162;40;20499;-74
2021/06/28 11:25:45;;;;;;;5.13;1.83;;;;;;;31.77;35.80;96425.13;3538983;40;20770;-76
2021/06/28 11:28:25;;;;;;;1.77;1.40;;;;;;;32.80;32.65;96424.03;3540151;40;20844;-74
2021/06/28 11:30:56;;;;;;;1.53;1.10;;;;;;;32.92;34.15;96421.19;3537448;40;20499;-75
2021/06/28 11:33:39;;;;;;;5.93;1.40;;;;;;;33.18;34.33;96415.03;3547609;40;20472;-75
2021/06/28 11:36:36;;;;;;;5.10;1.40;;;;;;;32.04;34.54;96417.22;3543500;40;20866;-77
2021/06/28 11:39:26;;;;;;;3.00;1.50;;;;;;;32.50;33.89;96415.22;3536830;40;20465;-75
2021/06/28 11:42:26;;;;;;;2.00;1.30;;;;;;;32.33;33.19;96406.28;3535297;40;20556;-73
2021/06/28 11:44:58;;;;;;;3.67;1.80;;;;;;;31.30;36.06;96403.69;3541605;40;20516;-75
2021/06/28 11:48:01;;;;;;;2.60;1.97;;;;;;;31.52;35.99;96403.88;3544825;40;20469;-75